EW5624 Weather Reports


Display with metric or nautical units.
time (UTC)temp
F
wind
direction
speed
MPH
gust
MPH
rain 1hr
in
rain 24hr
in
rain mn
in
humidity
%
barometer
mb
20240521020105 68 5 0.0 0.0 0.00 0.61 0.61 83 1007.9
20240521014505 68 5 0.0 2.0 0.00 0.61 0.61 83 1007.6
20240521013103 69 5 1.0 2.0 0.00 0.61 0.61 81 1007.3
20240521011518 70 5 1.0 3.0 0.00 0.61 0.61 79 1007.1
20240521010103 71 5 0.0 4.0 0.00 0.61 0.61 76 1007.0
20240521004504 72 5 2.0 5.0 0.00 0.61 0.61 73 1007.1
20240521003103 73 355 2.0 5.0 0.00 0.61 0.61 72 1007.2
20240521001505 73 346 0.0 5.0 0.00 0.61 0.61 69 1007.1
20240521000104 74 345 3.0 6.0 0.00 0.61 0.61 69 1006.8
20240520234503 74 339 0.0 3.0 0.00 0.61 0.61 70 1006.8
20240520233104 74 339 2.0 4.0 0.00 0.61 0.61 71 1006.9
20240520231505 74 334 2.0 5.0 0.00 0.61 0.61 70 1007.1
20240520230103 74 334 0.0 5.0 0.00 0.61 0.61 70 1007.1
20240520224503 74 329 2.0 4.0 0.00 0.61 0.61 72 1007.3
20240520223105 74 326 2.0 5.0 0.00 0.61 0.61 73 1007.3
20240520221503 74 325 2.0 4.0 0.00 0.61 0.61 74 1007.5
20240520220109 73 324 0.0 6.0 0.00 0.61 0.61 75 1007.6
20240520214507 73 275 2.0 6.0 0.00 0.61 0.61 75 1007.4
20240520213104 73 274 1.0 6.0 0.00 0.61 0.61 75 1007.3
20240520211503 74 273 0.0 3.0 0.00 0.61 0.61 73 1007.2
20240520210104 72 273 1.0 4.0 0.00 0.61 0.61 78 1007.2
20240520204503 73 273 2.0 8.0 0.00 0.61 0.61 73 1007.1
20240520203103 72 262 1.0 7.0 0.00 0.61 0.61 76 1007.1
20240520201503 73 258 3.0 8.0 0.00 0.61 0.61 75 1007.2
20240520200110 71 252 0.0 4.0 0.00 0.61 0.61 77 1007.3
20240520194504 72 252 1.0 4.0 0.00 0.61 0.61 77 1007.3
20240520193103 70 250 1.0 7.0 0.00 0.61 0.61 79 1007.3
20240520191509 71 249 3.0 5.0 0.00 0.61 0.61 79 1007.3
20240520190102 70 249 0.0 4.0 0.00 0.61 0.61 81 1007.3
20240520184503 69 249 3.0 8.0 0.00 0.61 0.61 83 1007.3
20240520183105 69 261 2.0 10.0 0.00 0.61 0.61 80 1007.4
20240520181503 70 242 3.0 11.0 0.00 0.61 0.61 77 1007.5
20240520180107 70 207 3.0 10.0 0.00 0.61 0.61 82 1007.4
20240520174503 68 175 2.0 6.0 0.00 0.61 0.61 84 1007.7
20240520173108 68 175 1.0 6.0 0.00 0.61 0.61 84 1007.7
20240520171504 68 175 2.0 6.0 0.00 0.61 0.61 85 1007.8
20240520170104 67 199 1.0 6.0 0.00 0.61 0.61 86 1007.8
20240520164504 67 190 2.0 6.0 0.00 0.61 0.61 88 1007.7
20240520163107 66 171 1.0 4.0 0.00 0.61 0.61 89 1007.6
20240520161504 65 150 1.0 5.0 0.00 0.61 0.61 91 1007.6
20240520160107 64 153 1.0 5.0 0.00 0.61 0.61 91 1007.7
20240520154503 64 175 2.0 6.0 0.00 0.61 0.61 92 1007.8
20240520153110 63 177 4.0 6.0 0.00 0.61 0.61 92 1007.5
20240520151503 62 105 1.0 3.0 0.00 0.61 0.61 94 1007.3
20240520150003 61 105 1.0 3.0 0.00 0.61 0.61 95 1007.2
20240520144620 60 107 1.0 4.0 0.00 0.61 0.61 95 1007.3
20240520143104 60 107 0.0 6.0 0.00 0.61 0.61 96 1007.3
20240520141503 59 105 1.0 4.0 0.00 0.61 0.61 96 1007.4
20240520140148 59 103 2.0 6.0 0.00 0.61 0.61 96 1007.5
20240520134506 58 99 0.0 4.0 0.00 0.61 0.61 96 1007.4
20240520133104 58 94 1.0 6.0 0.00 0.61 0.61 96 1007.4
20240520131506 57 96 2.0 7.0 0.00 0.61 0.61 96 1007.5
20240520130105 57 97 1.0 8.0 0.00 0.61 0.61 96 1007.5
20240520124505 56 104 1.0 4.0 0.00 0.61 0.61 96 1007.5
20240520123103 56 105 0.0 2.0 0.00 0.61 0.61 96 1007.9
20240520121504 56 105 1.0 6.0 0.00 0.61 0.61 96 1008.0
20240520120122 55 120 2.0 8.0 0.02 0.61 0.61 95 1007.8
20240520114503 55 96 1.0 4.0 0.03 0.61 0.61 95 1008.4
20240520113103 55 96 2.0 8.0 0.05 0.61 0.61 95 1008.4
20240520111503 55 95 2.0 8.0 0.07 0.61 0.61 95 1008.6
20240520110105 55 69 0.0 4.0 0.07 0.59 0.59 95 1008.7
20240520104503 55 69 0.0 0.0 0.07 0.57 0.57 95 1009.1
20240520103105 55 69 0.0 0.0 0.06 0.56 0.56 95 1008.9
20240520101502 55 69 0.0 4.0 0.07 0.54 0.54 95 1008.3
20240520100103 55 69 1.0 8.0 0.08 0.52 0.52 95 1007.9
20240520094503 55 71 4.0 9.0 0.11 0.51 0.51 95 1008.1
20240520093108 55 117 2.0 8.0 0.14 0.50 0.50 95 1008.2
20240520091503 55 119 2.0 7.0 0.24 0.47 0.47 95 1008.2
20240520090109 55 136 1.0 5.0 0.25 0.44 0.44 95 1008.6
20240520084502 55 138 1.0 3.0 0.28 0.40 0.40 94 1009.0
20240520083106 54 138 1.0 2.0 0.27 0.36 0.36 94 1009.2
20240520081505 54 138 0.0 2.0 0.16 0.23 0.23 94 1009.4
20240520080104 54 138 0.0 4.0 0.12 0.19 0.19 94 1009.2
20240520074503 54 138 2.0 4.0 0.04 0.11 0.11 93 1009.2
20240520073103 54 139 0.0 3.0 0.09 0.09 0.09 93 1009.5
20240520071503 54 139 0.0 4.0 0.07 0.07 0.07 93 1009.8
20240520070104 54 137 1.0 4.0 0.07 0.07 0.07 92 1008.7
20240520064502 54 136 0.0 3.0 0.07 0.07 0.07 92 1008.4
20240520063103 53 136 0.0 0.0 0.00 0.00 0.00 92 1008.9
20240520061504 53 136 0.0 2.0 0.00 0.00 0.00 92 1008.5
20240520060111 53 136 0.0 0.0 0.00 0.00 0.00 91 1008.6
20240520054503 52 136 0.0 0.0 0.00 0.00 0.00 91 1008.8
20240520053104 53 136 0.0 0.0 0.00 0.00 0.00 91 1008.9
20240520051503 53 136 0.0 0.0 0.00 0.00 0.00 90 1009.1
20240520050107 53 136 0.0 0.0 0.00 0.00 0.00 90 1009.2
20240520044505 53 136 0.0 0.0 0.00 0.00 0.00 90 1009.5
20240520043103 52 136 0.0 0.0 0.00 0.00 0.00 90 1009.8
20240520041505 53 136 0.0 0.0 0.00 0.00 0.00 89 1010.0
20240520040103 53 136 0.0 0.0 0.00 0.00 0.00 88 1010.1
20240520034503 54 136 0.0 0.0 0.00 0.00 0.00 87 1010.0
20240520033106 54 136 0.0 0.0 0.00 0.00 0.00 85 1010.3
20240520031503 55 136 0.0 0.0 0.00 0.00 0.00 84 1010.1
20240520030103 55 136 0.0 0.0 0.00 0.00 0.00 82 1010.2
20240520024503 56 136 0.0 0.0 0.00 0.00 0.00 81 1010.3
20240520023106 56 136 0.0 1.0 0.00 0.00 0.00 81 1010.3
20240520021503 57 136 1.0 3.0 0.00 0.00 0.00 80 1010.5